MUCCMUHA

Guest
Details From MUCC - JARDINES DEL REY
To MUHA - Havana Jose Marti Intl
Flight Number -
Tags generated
Created
Modified
Stats Distance 229 nm / 425 km
Max Altitude 26,400 ft / 8,047 m
Waypoints 4
Social Downloads 2
Likes 0
Share VATSIM

Download

Looking for another format? Having issues loading an existing format? Contact us
Advertisement - Login to hide

Notes

Basic altitude profile: - Ascent Rate: 2500ft/min - Ascent Speed: 250kts - Cruise Altitude: 140ft - Cruise Speed: 170kts - Descent Rate: 1500ft/min - Descent Speed: 250kts Options: - Use NATs: yes - Use PACOTS: yes - Use low airways: yes - Use high airways: yes

Route

MUCC ISABE J1 UVA MUHA

ID Type Via Altitude Latitude Longitude Leg Dist Tot Dist Heading (true) Name
O MUCC APT - 0 ft / 0 m 22.46094˚ -78.32860˚ - 0 nm - JARDINES DEL REY
ISABE FIX - 26,400 ft / 8,047 m 22.78389˚ -80.11639˚ 100 nm 100 nm 281° / 281° -
UVA VOR J1 (AWY-LO) 10,300 ft / 3,139 m 23.02469˚ -81.45358˚ 75 nm 176 nm 281° / 281° VARDER VOR-DME
O MUHA APT - 0 ft / 0 m 22.98915˚ -82.40909˚ 52 nm 229 nm 268° / 267° Havana Jose Marti Intl

Altitude Profile

Advertisement - Login to hide

Weather


0- 5 10 15 20 25 30 35+ Temperature / ° C

Clouds and Precipitation
Forecast for 2017-12-16 00:00 UTC. Updated 30 minutes ago

Ground ~20,000 ft ~40,000 ft Winds

MUCC

Details ICAO MUCC
Name JARDINES DEL REY
Region Cuba
Timezone America/Havana (UTC-5.0)
Stats Elevation 13 ft / 4 m (AMSL)
Location 22.460945° -78.328602°
Runways 1
Magnetic Variation 7.317° W

METAR

MUCC 152254Z 03008KT 9000 BKN020 24/22 Q1017

Decode

TAF

Not found

Departure Runways

ID Width Length Bearing (true) Bearing (mag) Surface Threshold Offset Overrun Length
08 148 ft / 45 m 9,835 ft / 2,998 m 70.91° 78.23° Asphalt 0 ft / 0 m 0 ft / 0 m
26 148 ft / 45 m 9,835 ft / 2,998 m 250.92° 258.24° Asphalt 0 ft / 0 m 0 ft / 0 m

MUHA

Details ICAO MUHA (HAV)
Name Havana Jose Marti Intl
Region Cuba
Timezone America/Havana (UTC-5.0)
Stats Elevation 209 ft / 64 m (AMSL)
Location 22.989154° -82.409086°
Runways 1
Magnetic Variation 4.909° W

METAR

MUHA 152255Z 05009KT 9000 FEW025 23/18 Q1018

Decode

TAF

Not found

Destination Runways

ID Width Length Bearing (true) Bearing (mag) Surface Threshold Offset Overrun Length
06 148 ft / 45 m 13,133 ft / 4,003 m 54.21° 59.12° Asphalt 0 ft / 0 m 476 ft / 145 m
24 148 ft / 45 m 13,133 ft / 4,003 m 234.23° 239.14° Asphalt 0 ft / 0 m 197 ft / 60 m

Approach Navaids

Runway Type Ident Frequency Range Bearing (true) Bearing (mag) Slope Elevation
06 Localiser IHA 110.50 MHz 18 nm / 33 km 54.23° 59.14° - 209 ft / 64 m (AMSL)
06 Glidescope IHA 110.50 MHz 10 nm / 19 km 54.22° 59.13° 3.00° 209 ft / 64 m (AMSL)

Popular Alternatives